createdAt,value
2022-08-17T00:00:43.214Z,22.33
2022-08-17T00:05:51.953Z,21.10
2022-08-17T00:10:55.034Z,20.70
2022-08-17T00:16:01.891Z,20.20
2022-08-17T00:21:10.363Z,17.38
2022-08-17T00:26:14.284Z,18.85
2022-08-17T00:31:17.115Z,19.55
2022-08-17T00:36:20.014Z,24.13
2022-08-17T00:41:25.685Z,24.70
2022-08-17T00:46:36.003Z,21.33
2022-08-17T00:51:56.514Z,16.17
2022-08-17T00:57:09.190Z,20.73
2022-08-17T01:02:15.096Z,18.65
2022-08-17T01:07:19.456Z,21.23
2022-08-17T01:12:21.949Z,20.58
2022-08-17T01:17:24.301Z,22.35
2022-08-17T01:22:27.302Z,19.80
2022-08-17T01:27:30.383Z,22.75
2022-08-17T01:32:33.321Z,20.77
2022-08-17T01:37:39.018Z,23.75
2022-08-17T01:43:11.056Z,20.60
2022-08-17T01:48:14.318Z,20.15
2022-08-17T01:53:21.019Z,21.52
2022-08-17T01:58:24.076Z,18.85
2022-08-17T02:03:26.575Z,18.98
2022-08-17T02:08:37.366Z,21.90
2022-08-17T02:13:43.774Z,24.15
2022-08-17T02:18:46.611Z,21.35
2022-08-17T02:23:50.142Z,20.75
2022-08-17T02:28:53.571Z,20.30
2022-08-17T02:34:00.243Z,19.45
2022-08-17T02:39:08.965Z,20.30
2022-08-17T02:44:12.240Z,18.38
2022-08-17T02:49:15.771Z,22.15
2022-08-17T02:54:41.233Z,19.98
2022-08-17T02:59:48.289Z,27.83
2022-08-17T03:04:51.276Z,21.20
2022-08-17T03:09:54.012Z,23.25
2022-08-17T03:14:56.409Z,19.27
2022-08-17T03:19:59.076Z,25.27
2022-08-17T03:25:01.789Z,21.70
2022-08-17T03:30:10.722Z,19.52
2022-08-17T03:35:16.461Z,17.58
2022-08-17T03:40:55.760Z,22.48
2022-08-17T03:46:02.823Z,24.95
2022-08-17T03:51:23.795Z,23.95
2022-08-17T03:56:44.101Z,24.20
2022-08-17T04:01:49.714Z,19.92
2022-08-17T04:06:55.726Z,20.50
2022-08-17T04:12:01.334Z,19.20
2022-08-17T04:17:07.296Z,21.10
2022-08-17T04:22:09.650Z,21.42
2022-08-17T04:27:32.030Z,23.98
2022-08-17T04:33:06.259Z,26.38
2022-08-17T04:38:13.078Z,24.85
2022-08-17T04:43:19.026Z,27.23
2022-08-17T04:48:21.626Z,27.00
2022-08-17T04:53:25.153Z,25.17
2022-08-17T04:58:27.536Z,24.77
2022-08-17T05:03:31.137Z,27.10
2022-08-17T05:08:33.767Z,32.67
2022-08-17T05:13:36.143Z,25.00
2022-08-17T05:18:39.078Z,23.00
2022-08-17T05:23:43.308Z,23.98
2022-08-17T05:28:46.388Z,28.55
2022-08-17T05:33:49.916Z,23.02
2022-08-17T05:38:52.773Z,25.85
2022-08-17T05:43:56.546Z,24.13
2022-08-17T05:49:07.996Z,26.38
2022-08-17T05:54:39.700Z,29.08
2022-08-17T06:00:00.134Z,26.10
2022-08-17T06:05:08.640Z,26.02
2022-08-17T06:10:34.023Z,26.55
2022-08-17T06:15:58.710Z,27.00
2022-08-17T06:21:04.660Z,29.17
2022-08-17T06:26:17.478Z,22.77
2022-08-17T06:31:31.035Z,24.50
2022-08-17T06:37:11.146Z,23.20
2022-08-17T06:43:04.045Z,20.23
2022-08-17T06:48:33.687Z,23.88
2022-08-17T06:53:43.007Z,19.70
2022-08-17T06:58:46.000Z,25.27
2022-08-17T07:03:59.445Z,21.15
2022-08-17T07:09:25.551Z,23.40
2022-08-17T07:14:51.849Z,24.77
2022-08-17T07:20:04.486Z,22.05
2022-08-17T07:25:10.285Z,17.63
2022-08-17T07:30:27.072Z,16.27
2022-08-17T07:35:43.980Z,18.73
2022-08-17T07:41:05.314Z,14.70
2022-08-17T07:46:43.120Z,13.48
2022-08-17T07:51:48.277Z,19.20
2022-08-17T07:57:08.921Z,20.02
2022-08-17T08:02:14.890Z,17.33
2022-08-17T08:07:20.552Z,15.80
2022-08-17T08:12:42.395Z,14.85
2022-08-17T08:17:55.434Z,12.25
2022-08-17T08:23:20.643Z,12.27
2022-08-17T08:28:43.068Z,15.25
2022-08-17T08:33:56.264Z,12.50
2022-08-17T08:39:04.670Z,13.88
2022-08-17T08:45:00.953Z,11.68
2022-08-17T08:50:30.265Z,13.50
2022-08-17T08:55:55.938Z,14.18
2022-08-17T09:00:59.867Z,12.10
2022-08-17T09:06:37.872Z,13.43
2022-08-17T09:12:02.797Z,16.38
2022-08-17T09:17:30.206Z,16.73
2022-08-17T09:22:48.471Z,10.27
2022-08-17T09:28:00.629Z,11.73
2022-08-17T09:33:08.350Z,8.70
2022-08-17T09:38:32.660Z,12.55
2022-08-17T09:43:56.182Z,7.70
2022-08-17T09:49:01.552Z,7.10
2022-08-17T09:54:37.128Z,10.98
2022-08-17T09:59:53.357Z,9.45
2022-08-17T10:05:21.579Z,10.27
2022-08-17T10:10:29.688Z,9.60
2022-08-17T10:16:12.276Z,9.00
2022-08-17T10:21:35.222Z,12.02
2022-08-17T10:26:55.968Z,9.35
2022-08-17T10:32:05.287Z,10.27
2022-08-17T10:37:19.961Z,13.77
2022-08-17T10:42:33.828Z,11.75
2022-08-17T10:48:06.379Z,13.77
2022-08-17T10:53:09.744Z,10.65
2022-08-17T10:58:22.251Z,12.18
2022-08-17T11:03:25.604Z,10.75
2022-08-17T11:08:48.436Z,11.00
2022-08-17T11:14:24.772Z,10.27
2022-08-17T11:19:51.193Z,9.75
2022-08-17T11:24:54.442Z,10.98
2022-08-17T11:30:02.881Z,7.57
2022-08-17T11:35:20.791Z,9.52
2022-08-17T11:40:42.065Z,11.07
2022-08-17T11:46:12.072Z,9.10
2022-08-17T11:51:35.981Z,8.38
2022-08-17T11:57:06.399Z,8.70
2022-08-17T12:02:47.500Z,9.60
2022-08-17T12:08:15.227Z,9.07
2022-08-17T12:13:19.390Z,12.68
2022-08-17T12:18:28.318Z,9.00
2022-08-17T12:23:48.359Z,11.07
2022-08-17T12:28:58.820Z,9.10
2022-08-17T12:34:04.974Z,13.88
2022-08-17T12:39:14.387Z,13.50
2022-08-17T12:44:33.508Z,8.82
2022-08-17T12:49:38.228Z,8.13
2022-08-17T12:54:59.578Z,9.50
2022-08-17T13:00:12.420Z,6.97
2022-08-17T13:05:28.066Z,6.35
2022-08-17T13:10:33.864Z,7.47
2022-08-17T13:15:51.434Z,8.60
2022-08-17T13:20:57.800Z,7.45
2022-08-17T13:26:16.974Z,7.97
2022-08-17T13:31:36.373Z,10.48
2022-08-17T13:36:43.721Z,7.97
2022-08-17T13:41:49.817Z,10.18
2022-08-17T13:46:57.088Z,9.20
2022-08-17T13:51:59.921Z,8.40
2022-08-17T13:57:08.037Z,12.90
2022-08-17T14:02:12.279Z,9.90
2022-08-17T14:07:16.231Z,10.30
2022-08-17T14:12:21.887Z,10.07
2022-08-17T14:17:26.011Z,9.52
2022-08-17T14:22:34.033Z,12.30
2022-08-17T14:27:51.722Z,11.80
2022-08-17T14:32:56.478Z,9.52
2022-08-17T14:37:58.986Z,12.07
2022-08-17T14:43:01.416Z,7.82
2022-08-17T14:48:07.714Z,12.38
2022-08-17T14:53:13.509Z,7.63
2022-08-17T14:58:15.924Z,7.80
2022-08-17T15:03:18.833Z,9.45
2022-08-17T15:08:21.475Z,9.80
2022-08-17T15:13:26.530Z,10.95
2022-08-17T15:18:30.353Z,9.40
2022-08-17T15:23:32.903Z,11.13
2022-08-17T15:28:37.723Z,13.32
2022-08-17T15:33:40.132Z,9.82
2022-08-17T15:38:44.434Z,9.15
2022-08-17T15:43:50.148Z,20.38
2022-08-17T15:48:58.233Z,10.95
2022-08-17T15:54:18.797Z,9.18
2022-08-17T15:59:21.836Z,10.82
2022-08-17T16:04:29.955Z,15.70
2022-08-17T16:09:33.802Z,7.55
2022-08-17T16:14:36.495Z,11.02
2022-08-17T16:19:40.248Z,12.63
2022-08-17T16:24:56.817Z,10.25
2022-08-17T16:30:00.910Z,8.10
2022-08-17T16:35:10.665Z,11.10
2022-08-17T16:40:15.422Z,8.13
2022-08-17T16:45:21.243Z,8.77
2022-08-17T16:50:24.642Z,10.00
2022-08-17T16:55:27.110Z,9.30
2022-08-17T17:00:30.483Z,10.25
2022-08-17T17:05:51.366Z,11.10
2022-08-17T17:11:08.973Z,11.65
2022-08-17T17:16:19.054Z,9.32
2022-08-17T17:21:31.284Z,12.35
2022-08-17T17:26:55.415Z,16.50
2022-08-17T17:32:38.097Z,13.88
2022-08-17T17:37:43.210Z,14.30
2022-08-17T17:42:45.848Z,14.57
2022-08-17T17:47:48.360Z,14.77
2022-08-17T17:53:05.097Z,12.40
2022-08-17T17:58:10.253Z,14.20
2022-08-17T18:03:22.086Z,12.40
2022-08-17T18:09:19.483Z,14.25
2022-08-17T18:14:37.637Z,11.85
2022-08-17T18:19:41.509Z,14.32
2022-08-17T18:24:47.426Z,22.40
2022-08-17T18:29:53.623Z,17.73
2022-08-17T18:35:02.418Z,17.30
2022-08-17T18:40:16.975Z,17.73
2022-08-17T18:45:33.638Z,20.13
2022-08-17T18:50:43.900Z,17.40
2022-08-17T18:55:48.173Z,15.20
2022-08-17T19:00:51.786Z,17.40
2022-08-17T19:05:57.544Z,18.17
2022-08-17T19:11:05.545Z,20.63
2022-08-17T19:16:14.697Z,16.20
2022-08-17T19:21:52.421Z,31.95
2022-08-17T19:27:13.802Z,24.58
2022-08-17T19:32:20.319Z,19.83
2022-08-17T19:37:25.428Z,25.90
2022-08-17T19:42:52.578Z,20.40
2022-08-17T19:48:14.223Z,23.38
2022-08-17T19:53:54.165Z,22.88
2022-08-17T19:59:15.545Z,21.52
2022-08-17T20:04:41.111Z,25.10
2022-08-17T20:09:54.125Z,22.02
2022-08-17T20:15:03.032Z,25.45
2022-08-17T20:20:29.846Z,24.55
2022-08-17T20:25:46.311Z,17.80
2022-08-17T20:30:48.938Z,17.80
2022-08-17T20:36:06.515Z,21.77
2022-08-17T20:41:25.170Z,23.60
2022-08-17T20:46:36.480Z,24.23
2022-08-17T20:52:02.217Z,22.00
2022-08-17T20:57:09.207Z,22.75
2022-08-17T21:02:21.764Z,21.05
2022-08-17T21:07:43.499Z,18.02
2022-08-17T21:12:51.633Z,19.35
2022-08-17T21:18:18.605Z,18.15
2022-08-17T21:23:47.224Z,25.13
2022-08-17T21:29:31.515Z,19.90
2022-08-17T21:34:39.214Z,18.73
2022-08-17T21:40:02.336Z,19.23
2022-08-17T21:45:26.110Z,14.52
2022-08-17T21:50:28.586Z,13.88
2022-08-17T21:55:35.711Z,16.90
2022-08-17T22:00:38.354Z,15.30
2022-08-17T22:05:40.975Z,16.48
2022-08-17T22:10:45.594Z,15.90
2022-08-17T22:16:28.380Z,18.20
2022-08-17T22:21:29.749Z,14.63
2022-08-17T22:27:00.272Z,21.33
2022-08-17T22:32:02.943Z,19.63
2022-08-17T22:37:27.876Z,15.27
2022-08-17T22:42:30.536Z,14.95
2022-08-17T22:47:40.995Z,19.77
2022-08-17T22:53:03.657Z,20.38
2022-08-17T22:58:34.215Z,19.95
2022-08-17T23:03:54.263Z,18.55
2022-08-17T23:08:57.737Z,17.02
2022-08-17T23:14:00.214Z,16.17
2022-08-17T23:19:02.580Z,18.13
2022-08-17T23:24:09.167Z,18.10
2022-08-17T23:29:11.536Z,16.00
2022-08-17T23:34:15.209Z,18.40
2022-08-17T23:39:27.706Z,24.50
2022-08-17T23:44:31.206Z,17.35
2022-08-17T23:49:33.685Z,16.27
2022-08-17T23:54:43.724Z,17.52
2022-08-17T23:59:46.965Z,18.98
